Catamaran Nera — HP6060 — position and weather

sailwx.info

Track history (hours):
 
Tides and Currents Weather Stations Pressure Air Temp Water Temp Dewpoint Dewpoint Depression Visibility Wind Speed Wind Dir Waves Ship Positions

Catamaran Nera

Last reported at 2018-Feb-19 15:31 UTC. Time now 2018-Jun-23 14:02 UTC.
Position N 25°34' W 080°08'.
Warning: this ship's position is months out of date.

Length 15 m.

Type: Pleasure craft. MMSI: 351033000.

Date/timePositionNaut miles runAvg speedWind from/ knotsBaromVisibWave heightAir tempDewpointWater temp
2018-Feb-19 15:31N 25°34' W 080°08'0 8.1
2018-Feb-19 15:29N 25°35' W 080°07'4 7.2
2018-Feb-19 14:59N 25°38' W 080°07'2 5.0
2018-Feb-19 14:29N 25°40' W 080°10'1 1.1
2018-Feb-19 13:50N 25°40' W 080°10'0 0.0
2018-Feb-19 13:20N 25°40' W 080°10'0 0.0
2018-Feb-19 12:56N 25°40' W 080°10'0 0.0
2018-Feb-19 12:26N 25°40' W 080°10'0 0.0
2018-Feb-18 19:19N 25°40' W 080°10'0 0.0
2018-Feb-18 18:54N 25°40' W 080°10'2 3.5
2018-Feb-18 18:27N 25°41' W 080°12'4 1.1
2018-Feb-18 15:09N 25°37' W 080°13'1 6.8
2018-Feb-18 14:57N 25°39' W 080°13'3 5.9
2018-Feb-18 14:28N 25°41' W 080°11'1 2.2
2018-Feb-18 13:59N 25°40' W 080°10'10 0.5
2018-Feb-17 20:08N 25°50' W 080°06'1 7.1
2018-Feb-17 20:00N 25°51' W 080°06'4 7.2
2018-Feb-17 19:25N 25°55' W 080°06'4 7.1
2018-Feb-17 18:55N 25°58' W 080°05'3 6.8
2018-Feb-17 18:30N 26°01' W 080°05'2 4.8
2018-Feb-17 18:00N 26°03' W 080°04'2 3.5
2018-Feb-17 17:30N 26°05' W 080°05'2 3.5
2018-Feb-17 16:48N 26°07' W 080°07'1 2.8
2018-Feb-17 16:29N 26°07' W 080°07'0 0.0
2018-Feb-16 20:28N 26°07' W 080°07'0 0.5
2018-Feb-16 19:57N 26°07' W 080°07'1 0.9
2018-Feb-16 18:57N 26°06' W 080°07'0 0.0
2018-Feb-16 18:14N 26°06' W 080°07'0 0.1
2018-Feb-16 17:55N 26°06' W 080°07'0 0.1
2018-Feb-16 17:30N 26°06' W 080°07'1 2.1
2018-Feb-16 16:59N 26°07' W 080°07'0 0.0
2018-Feb-16 04:04N 26°07' W 080°07'0 0.0
2018-Feb-16 03:52N 26°07' W 080°07'0 0.0
2018-Feb-16 03:22N 26°07' W 080°07'0 0.0
2018-Feb-16 02:52N 26°07' W 080°07'0 0.0
2018-Feb-16 02:22N 26°07' W 080°07'0 0.0
2018-Feb-16 01:40N 26°07' W 080°07'0 0.0
2018-Feb-16 01:22N 26°07' W 080°07'0 0.0
2018-Feb-16 00:52N 26°07' W 080°07'0 0.0
2018-Feb-16 00:13N 26°07' W 080°07'0 0.0
2018-Feb-15 23:55N 26°07' W 080°07'0 0.0
2018-Feb-15 23:10N 26°07' W 080°07'0 0.0
2018-Feb-15 22:58N 26°07' W 080°07'0 0.0
2018-Feb-15 22:16N 26°07' W 080°07'0 0.0
2018-Feb-15 21:55N 26°07' W 080°07'0 0.0
2018-Feb-15 21:28N 26°07' W 080°07'0 0.0
2018-Feb-15 20:28N 26°07' W 080°07'0 0.0
2018-Feb-15 19:34N 26°07' W 080°07'0 0.0
2018-Feb-15 19:16N 26°07' W 080°07'0 0.0
2018-Feb-15 18:49N 26°07' W 080°07'0 0.0
2018-Feb-15 18:19N 26°07' W 080°07'0 0.0
2018-Feb-15 17:49N 26°07' W 080°07'0 0.0
2018-Feb-15 17:22N 26°07' W 080°07'0 0.0
2018-Feb-15 16:52N 26°07' W 080°07'0 0.0
2018-Feb-15 16:22N 26°07' W 080°07'0 0.0
2018-Feb-15 15:37N 26°07' W 080°07'0 0.0
2018-Feb-15 15:22N 26°07' W 080°07'0 0.0
2018-Feb-15 14:55N 26°07' W 080°07'0 0.0
2018-Feb-15 00:05N 26°07' W 080°07'0 0.0
2018-Feb-14 23:56N 26°07' W 080°07'0 0.0
2018-Feb-14 23:26N 26°07' W 080°07'0 0.0
2018-Feb-14 22:56N 26°07' W 080°07'0 0.0
2018-Feb-14 22:26N 26°07' W 080°07'0 0.0
2018-Feb-14 21:59N 26°07' W 080°07'0 0.0
2018-Feb-14 21:23N 26°07' W 080°07'0 0.0
2018-Feb-14 20:56N 26°07' W 080°07'0 0.0
2018-Feb-14 20:14N 26°07' W 080°07'0 0.0
2018-Feb-14 19:59N 26°07' W 080°07'0 0.0
2018-Feb-14 19:14N 26°07' W 080°07'0 0.0
2018-Feb-14 18:56N 26°07' W 080°07'0 0.0
2018-Feb-14 18:14N 26°07' W 080°07'0 0.0
2018-Feb-14 17:44N 26°07' W 080°07'0 0.0
2018-Feb-14 17:20N 26°07' W 080°07'0 0.0
2018-Feb-14 16:35N 26°07' W 080°07'0 0.0
2018-Feb-14 16:29N 26°07' W 080°07'0 0.0
2018-Feb-14 15:50N 26°07' W 080°07'0 0.0
2018-Feb-14 15:02N 26°07' W 080°07'0 0.0
2018-Feb-14 14:50N 26°07' W 080°07'0 0.0
2018-Feb-14 14:20N 26°07' W 080°07'0 0.0
2018-Feb-14 13:53N 26°07' W 080°07'  
2018-Feb-10 18:30N 26°07' W 080°07'0 0.0
2018-Feb-10 18:00N 26°07' W 080°07'0 0.0
2018-Feb-10 17:30N 26°07' W 080°07'  
Track history (hours):
 
Tides and Currents Weather Stations Pressure Air Temp Water Temp Dewpoint Dewpoint Depression Visibility Wind Speed Wind Dir Waves Ship Positions

Catamaran Nera

Last reported at 2018-Feb-19 15:31 UTC. Time now 2018-Jun-23 14:02 UTC.
Position N 25°34' W 080°08'.
Warning: this ship's position is months out of date.

Length 15 m.

Type: Pleasure craft. MMSI: 351033000.

Date/timePositionNaut miles runAvg speedWind from/ knotsBaromVisibWave heightAir tempDewpointWater temp
2018-Feb-19 15:31N 25°34' W 080°08'0 8.1
2018-Feb-19 15:29N 25°35' W 080°07'4 7.2
2018-Feb-19 14:59N 25°38' W 080°07'2 5.0
2018-Feb-19 14:29N 25°40' W 080°10'1 1.1
2018-Feb-19 13:50N 25°40' W 080°10'0 0.0
2018-Feb-19 13:20N 25°40' W 080°10'0 0.0
2018-Feb-19 12:56N 25°40' W 080°10'0 0.0
2018-Feb-19 12:26N 25°40' W 080°10'0 0.0
2018-Feb-18 19:19N 25°40' W 080°10'0 0.0
2018-Feb-18 18:54N 25°40' W 080°10'2 3.5
2018-Feb-18 18:27N 25°41' W 080°12'4 1.1
2018-Feb-18 15:09N 25°37' W 080°13'1 6.8
2018-Feb-18 14:57N 25°39' W 080°13'3 5.9
2018-Feb-18 14:28N 25°41' W 080°11'1 2.2
2018-Feb-18 13:59N 25°40' W 080°10'10 0.5
2018-Feb-17 20:08N 25°50' W 080°06'1 7.1
2018-Feb-17 20:00N 25°51' W 080°06'4 7.2
2018-Feb-17 19:25N 25°55' W 080°06'4 7.1
2018-Feb-17 18:55N 25°58' W 080°05'3 6.8
2018-Feb-17 18:30N 26°01' W 080°05'2 4.8
2018-Feb-17 18:00N 26°03' W 080°04'2 3.5
2018-Feb-17 17:30N 26°05' W 080°05'2 3.5
2018-Feb-17 16:48N 26°07' W 080°07'1 2.8
2018-Feb-17 16:29N 26°07' W 080°07'0 0.0
2018-Feb-16 20:28N 26°07' W 080°07'0 0.5
2018-Feb-16 19:57N 26°07' W 080°07'1 0.9
2018-Feb-16 18:57N 26°06' W 080°07'0 0.0
2018-Feb-16 18:14N 26°06' W 080°07'0 0.1
2018-Feb-16 17:55N 26°06' W 080°07'0 0.1
2018-Feb-16 17:30N 26°06' W 080°07'1 2.1
2018-Feb-16 16:59N 26°07' W 080°07'0 0.0
2018-Feb-16 04:04N 26°07' W 080°07'0 0.0
2018-Feb-16 03:52N 26°07' W 080°07'0 0.0
2018-Feb-16 03:22N 26°07' W 080°07'0 0.0
2018-Feb-16 02:52N 26°07' W 080°07'0 0.0
2018-Feb-16 02:22N 26°07' W 080°07'0 0.0
2018-Feb-16 01:40N 26°07' W 080°07'0 0.0
2018-Feb-16 01:22N 26°07' W 080°07'0 0.0
2018-Feb-16 00:52N 26°07' W 080°07'0 0.0
2018-Feb-16 00:13N 26°07' W 080°07'0 0.0
2018-Feb-15 23:55N 26°07' W 080°07'0 0.0
2018-Feb-15 23:10N 26°07' W 080°07'0 0.0
2018-Feb-15 22:58N 26°07' W 080°07'0 0.0
2018-Feb-15 22:16N 26°07' W 080°07'0 0.0
2018-Feb-15 21:55N 26°07' W 080°07'0 0.0
2018-Feb-15 21:28N 26°07' W 080°07'0 0.0
2018-Feb-15 20:28N 26°07' W 080°07'0 0.0
2018-Feb-15 19:34N 26°07' W 080°07'0 0.0
2018-Feb-15 19:16N 26°07' W 080°07'0 0.0
2018-Feb-15 18:49N 26°07' W 080°07'0 0.0
2018-Feb-15 18:19N 26°07' W 080°07'0 0.0
2018-Feb-15 17:49N 26°07' W 080°07'0 0.0
2018-Feb-15 17:22N 26°07' W 080°07'0 0.0
2018-Feb-15 16:52N 26°07' W 080°07'0 0.0
2018-Feb-15 16:22N 26°07' W 080°07'0 0.0
2018-Feb-15 15:37N 26°07' W 080°07'0 0.0
2018-Feb-15 15:22N 26°07' W 080°07'0 0.0
2018-Feb-15 14:55N 26°07' W 080°07'0 0.0
2018-Feb-15 00:05N 26°07' W 080°07'0 0.0
2018-Feb-14 23:56N 26°07' W 080°07'0 0.0
2018-Feb-14 23:26N 26°07' W 080°07'0 0.0
2018-Feb-14 22:56N 26°07' W 080°07'0 0.0
2018-Feb-14 22:26N 26°07' W 080°07'0 0.0
2018-Feb-14 21:59N 26°07' W 080°07'0 0.0
2018-Feb-14 21:23N 26°07' W 080°07'0 0.0
2018-Feb-14 20:56N 26°07' W 080°07'0 0.0
2018-Feb-14 20:14N 26°07' W 080°07'0 0.0
2018-Feb-14 19:59N 26°07' W 080°07'0 0.0
2018-Feb-14 19:14N 26°07' W 080°07'0 0.0
2018-Feb-14 18:56N 26°07' W 080°07'0 0.0
2018-Feb-14 18:14N 26°07' W 080°07'0 0.0
2018-Feb-14 17:44N 26°07' W 080°07'0 0.0
2018-Feb-14 17:20N 26°07' W 080°07'0 0.0
2018-Feb-14 16:35N 26°07' W 080°07'0 0.0
2018-Feb-14 16:29N 26°07' W 080°07'0 0.0
2018-Feb-14 15:50N 26°07' W 080°07'0 0.0
2018-Feb-14 15:02N 26°07' W 080°07'0 0.0
2018-Feb-14 14:50N 26°07' W 080°07'0 0.0
2018-Feb-14 14:20N 26°07' W 080°07'0 0.0
2018-Feb-14 13:53N 26°07' W 080°07'  
2018-Feb-10 18:30N 26°07' W 080°07'0 0.0
2018-Feb-10 18:00N 26°07' W 080°07'0 0.0
2018-Feb-10 17:30N 26°07' W 080°07'  

Dump ship's entire track history